sensor_id;sensor_type;location;lat;lon;timestamp;temperature;humidity
56336;DHT22;42241;53.510;10.170;2022-07-06T00:00:02;15.70;99.90
56336;DHT22;42241;53.510;10.170;2022-07-06T00:02:28;15.70;99.90
56336;DHT22;42241;53.510;10.170;2022-07-06T00:04:54;15.70;99.90
56336;DHT22;42241;53.510;10.170;2022-07-06T00:07:19;15.70;99.90
56336;DHT22;42241;53.510;10.170;2022-07-06T00:09:47;15.70;99.90
56336;DHT22;42241;53.510;10.170;2022-07-06T00:12:15;15.80;99.90
56336;DHT22;42241;53.510;10.170;2022-07-06T00:14:40;15.80;99.90
56336;DHT22;42241;53.510;10.170;2022-07-06T00:17:06;15.80;99.90
56336;DHT22;42241;53.510;10.170;2022-07-06T00:19:32;15.80;99.90
56336;DHT22;42241;53.510;10.170;2022-07-06T00:21:57;15.80;99.90
56336;DHT22;42241;53.510;10.170;2022-07-06T00:24:23;15.80;99.90
56336;DHT22;42241;53.510;10.170;2022-07-06T00:26:48;15.80;99.90
56336;DHT22;42241;53.510;10.170;2022-07-06T00:29:14;15.80;99.90
56336;DHT22;42241;53.510;10.170;2022-07-06T00:31:40;15.80;99.90
56336;DHT22;42241;53.510;10.170;2022-07-06T00:34:05;15.80;99.90
56336;DHT22;42241;53.510;10.170;2022-07-06T00:36:31;15.80;99.90
56336;DHT22;42241;53.510;10.170;2022-07-06T00:38:56;15.80;99.90
56336;DHT22;42241;53.510;10.170;2022-07-06T00:41:22;15.70;99.90
56336;DHT22;42241;53.510;10.170;2022-07-06T00:43:52;15.70;99.90
56336;DHT22;42241;53.510;10.170;2022-07-06T00:46:20;15.70;99.90
56336;DHT22;42241;53.510;10.170;2022-07-06T00:48:46;15.60;99.90
56336;DHT22;42241;53.510;10.170;2022-07-06T00:51:12;15.60;99.90
56336;DHT22;42241;53.510;10.170;2022-07-06T00:53:38;15.50;99.90
56336;DHT22;42241;53.510;10.170;2022-07-06T00:56:05;15.50;99.90
56336;DHT22;42241;53.510;10.170;2022-07-06T00:58:30;15.40;99.90
56336;DHT22;42241;53.510;10.170;2022-07-06T01:00:56;15.40;99.90
56336;DHT22;42241;53.510;10.170;2022-07-06T01:03:21;15.50;99.90
56336;DHT22;42241;53.510;10.170;2022-07-06T01:05:47;15.50;99.90
56336;DHT22;42241;53.510;10.170;2022-07-06T01:08:13;15.50;99.90
56336;DHT22;42241;53.510;10.170;2022-07-06T01:10:38;15.50;99.90
56336;DHT22;42241;53.510;10.170;2022-07-06T01:13:04;15.50;99.90
56336;DHT22;42241;53.510;10.170;2022-07-06T01:15:30;15.50;99.90
56336;DHT22;42241;53.510;10.170;2022-07-06T01:17:55;15.50;99.90
56336;DHT22;42241;53.510;10.170;2022-07-06T01:20:22;15.50;99.90
56336;DHT22;42241;53.510;10.170;2022-07-06T01:22:49;15.50;99.90
56336;DHT22;42241;53.510;10.170;2022-07-06T01:25:14;15.40;99.90
56336;DHT22;42241;53.510;10.170;2022-07-06T01:27:40;15.40;99.90
56336;DHT22;42241;53.510;10.170;2022-07-06T01:30:07;15.40;99.90
56336;DHT22;42241;53.510;10.170;2022-07-06T01:32:33;15.40;99.90
56336;DHT22;42241;53.510;10.170;2022-07-06T01:34:59;15.40;99.90
56336;DHT22;42241;53.510;10.170;2022-07-06T01:37:25;15.40;99.90
56336;DHT22;42241;53.510;10.170;2022-07-06T01:39:50;15.40;99.90
56336;DHT22;42241;53.510;10.170;2022-07-06T01:42:16;15.40;99.90
56336;DHT22;42241;53.510;10.170;2022-07-06T01:44:43;15.30;99.90
56336;DHT22;42241;53.510;10.170;2022-07-06T01:47:09;15.40;99.90
56336;DHT22;42241;53.510;10.170;2022-07-06T01:49:35;15.40;99.90
56336;DHT22;42241;53.510;10.170;2022-07-06T01:52:00;15.40;99.90
56336;DHT22;42241;53.510;10.170;2022-07-06T01:54:26;15.40;99.90
56336;DHT22;42241;53.510;10.170;2022-07-06T01:56:51;15.50;99.90
56336;DHT22;42241;53.510;10.170;2022-07-06T01:59:17;15.50;99.90
56336;DHT22;42241;53.510;10.170;2022-07-06T02:01:42;15.40;99.90
56336;DHT22;42241;53.510;10.170;2022-07-06T02:04:08;15.40;99.90
56336;DHT22;42241;53.510;10.170;2022-07-06T02:06:33;15.40;99.90
56336;DHT22;42241;53.510;10.170;2022-07-06T02:08:59;15.40;99.90
56336;DHT22;42241;53.510;10.170;2022-07-06T02:11:24;15.40;99.90
56336;DHT22;42241;53.510;10.170;2022-07-06T02:13:50;15.40;99.90
56336;DHT22;42241;53.510;10.170;2022-07-06T02:16:16;15.40;99.90
56336;DHT22;42241;53.510;10.170;2022-07-06T02:18:41;15.40;99.90
56336;DHT22;42241;53.510;10.170;2022-07-06T02:21:07;15.40;99.90
56336;DHT22;42241;53.510;10.170;2022-07-06T02:23:32;15.40;99.90
56336;DHT22;42241;53.510;10.170;2022-07-06T02:25:58;15.40;99.90
56336;DHT22;42241;53.510;10.170;2022-07-06T02:28:23;15.40;99.90
56336;DHT22;42241;53.510;10.170;2022-07-06T02:30:49;15.40;99.90
56336;DHT22;42241;53.510;10.170;2022-07-06T02:33:14;15.30;99.90
56336;DHT22;42241;53.510;10.170;2022-07-06T02:35:40;15.40;99.90
56336;DHT22;42241;53.510;10.170;2022-07-06T02:38:10;15.40;99.90
56336;DHT22;42241;53.510;10.170;2022-07-06T02:40:36;15.40;99.90
56336;DHT22;42241;53.510;10.170;2022-07-06T02:43:02;15.40;99.90
56336;DHT22;42241;53.510;10.170;2022-07-06T02:45:27;15.40;99.90
56336;DHT22;42241;53.510;10.170;2022-07-06T02:47:53;15.40;99.90
56336;DHT22;42241;53.510;10.170;2022-07-06T02:50:20;15.50;99.90
56336;DHT22;42241;53.510;10.170;2022-07-06T02:52:46;15.40;99.90
56336;DHT22;42241;53.510;10.170;2022-07-06T02:55:11;15.40;99.90
56336;DHT22;42241;53.510;10.170;2022-07-06T02:57:37;15.40;99.90
56336;DHT22;42241;53.510;10.170;2022-07-06T03:00:03;15.30;99.90
56336;DHT22;42241;53.510;10.170;2022-07-06T03:02:29;15.30;99.90
56336;DHT22;42241;53.510;10.170;2022-07-06T03:04:54;15.20;99.90
56336;DHT22;42241;53.510;10.170;2022-07-06T03:07:21;15.20;99.90
56336;DHT22;42241;53.510;10.170;2022-07-06T03:09:47;15.20;99.90
56336;DHT22;42241;53.510;10.170;2022-07-06T03:12:13;15.10;99.90
56336;DHT22;42241;53.510;10.170;2022-07-06T03:14:38;15.10;99.90
56336;DHT22;42241;53.510;10.170;2022-07-06T03:17:04;15.10;99.90
56336;DHT22;42241;53.510;10.170;2022-07-06T03:19:30;15.10;99.90
56336;DHT22;42241;53.510;10.170;2022-07-06T03:21:55;15.00;99.90
56336;DHT22;42241;53.510;10.170;2022-07-06T03:24:23;15.10;99.90
56336;DHT22;42241;53.510;10.170;2022-07-06T03:26:49;15.00;99.90
56336;DHT22;42241;53.510;10.170;2022-07-06T03:29:14;15.10;99.90
56336;DHT22;42241;53.510;10.170;2022-07-06T03:31:40;15.10;99.90
56336;DHT22;42241;53.510;10.170;2022-07-06T03:34:05;15.10;99.90
56336;DHT22;42241;53.510;10.170;2022-07-06T03:36:31;15.20;99.90
56336;DHT22;42241;53.510;10.170;2022-07-06T03:38:57;15.20;99.90
56336;DHT22;42241;53.510;10.170;2022-07-06T03:41:22;15.20;99.90
56336;DHT22;42241;53.510;10.170;2022-07-06T03:43:48;15.10;99.90
56336;DHT22;42241;53.510;10.170;2022-07-06T03:46:13;15.10;99.90
56336;DHT22;42241;53.510;10.170;2022-07-06T03:48:39;15.10;99.90
56336;DHT22;42241;53.510;10.170;2022-07-06T03:51:05;15.20;99.90
56336;DHT22;42241;53.510;10.170;2022-07-06T03:53:31;15.20;99.90
56336;DHT22;42241;53.510;10.170;2022-07-06T03:55:57;15.20;99.90
56336;DHT22;42241;53.510;10.170;2022-07-06T03:58:41;15.20;99.90
56336;DHT22;42241;53.510;10.170;2022-07-06T04:01:07;15.20;99.90
56336;DHT22;42241;53.510;10.170;2022-07-06T04:03:32;15.20;99.90
56336;DHT22;42241;53.510;10.170;2022-07-06T04:05:58;15.20;99.90
56336;DHT22;42241;53.510;10.170;2022-07-06T04:08:23;15.20;99.90
56336;DHT22;42241;53.510;10.170;2022-07-06T04:10:49;15.30;99.90
56336;DHT22;42241;53.510;10.170;2022-07-06T04:13:14;15.30;99.90
56336;DHT22;42241;53.510;10.170;2022-07-06T04:15:40;15.40;99.90
56336;DHT22;42241;53.510;10.170;2022-07-06T04:18:06;15.40;99.90
56336;DHT22;42241;53.510;10.170;2022-07-06T04:20:31;15.40;99.90
56336;DHT22;42241;53.510;10.170;2022-07-06T04:22:57;15.40;99.90
56336;DHT22;42241;53.510;10.170;2022-07-06T04:25:23;15.30;99.90
56336;DHT22;42241;53.510;10.170;2022-07-06T04:27:49;15.20;99.90
56336;DHT22;42241;53.510;10.170;2022-07-06T04:30:15;15.20;99.90
56336;DHT22;42241;53.510;10.170;2022-07-06T04:32:40;15.10;99.90
56336;DHT22;42241;53.510;10.170;2022-07-06T04:35:06;15.10;99.90
56336;DHT22;42241;53.510;10.170;2022-07-06T04:37:32;15.00;99.90
56336;DHT22;42241;53.510;10.170;2022-07-06T04:39:57;15.10;99.90
56336;DHT22;42241;53.510;10.170;2022-07-06T04:42:23;15.10;99.90
56336;DHT22;42241;53.510;10.170;2022-07-06T04:44:49;15.10;99.90
56336;DHT22;42241;53.510;10.170;2022-07-06T04:47:14;15.30;99.90
56336;DHT22;42241;53.510;10.170;2022-07-06T04:49:40;15.30;99.90
56336;DHT22;42241;53.510;10.170;2022-07-06T04:52:05;15.40;99.90
56336;DHT22;42241;53.510;10.170;2022-07-06T04:54:31;15.50;99.90
56336;DHT22;42241;53.510;10.170;2022-07-06T04:56:57;15.70;99.90
56336;DHT22;42241;53.510;10.170;2022-07-06T04:59:22;15.80;99.90
56336;DHT22;42241;53.510;10.170;2022-07-06T05:01:48;15.90;99.90
56336;DHT22;42241;53.510;10.170;2022-07-06T05:04:14;16.00;99.90
56336;DHT22;42241;53.510;10.170;2022-07-06T05:06:39;16.10;99.90
56336;DHT22;42241;53.510;10.170;2022-07-06T05:09:05;16.10;99.90
56336;DHT22;42241;53.510;10.170;2022-07-06T05:11:30;16.20;99.90
56336;DHT22;42241;53.510;10.170;2022-07-06T05:13:56;16.20;99.90
56336;DHT22;42241;53.510;10.170;2022-07-06T05:16:22;16.20;99.90
56336;DHT22;42241;53.510;10.170;2022-07-06T05:18:48;16.10;99.90
56336;DHT22;42241;53.510;10.170;2022-07-06T05:21:28;16.00;99.90
56336;DHT22;42241;53.510;10.170;2022-07-06T05:23:54;16.00;99.90
56336;DHT22;42241;53.510;10.170;2022-07-06T05:26:20;16.00;99.90
56336;DHT22;42241;53.510;10.170;2022-07-06T05:28:45;16.00;99.90
56336;DHT22;42241;53.510;10.170;2022-07-06T05:31:11;15.90;99.90
56336;DHT22;42241;53.510;10.170;2022-07-06T05:33:37;15.90;99.90
56336;DHT22;42241;53.510;10.170;2022-07-06T05:36:02;15.90;99.90
56336;DHT22;42241;53.510;10.170;2022-07-06T05:38:28;15.80;99.90
56336;DHT22;42241;53.510;10.170;2022-07-06T05:40:54;15.90;99.90
56336;DHT22;42241;53.510;10.170;2022-07-06T05:43:21;16.00;99.90
56336;DHT22;42241;53.510;10.170;2022-07-06T05:45:47;16.00;99.90
56336;DHT22;42241;53.510;10.170;2022-07-06T05:48:13;16.10;99.90
56336;DHT22;42241;53.510;10.170;2022-07-06T05:50:59;16.10;99.90
56336;DHT22;42241;53.510;10.170;2022-07-06T05:53:25;16.10;99.90
56336;DHT22;42241;53.510;10.170;2022-07-06T05:55:53;16.10;99.90
56336;DHT22;42241;53.510;10.170;2022-07-06T05:58:18;16.20;99.90
56336;DHT22;42241;53.510;10.170;2022-07-06T06:00:47;16.40;99.90
56336;DHT22;42241;53.510;10.170;2022-07-06T06:03:12;16.60;99.90
56336;DHT22;42241;53.510;10.170;2022-07-06T06:05:38;16.80;99.90
56336;DHT22;42241;53.510;10.170;2022-07-06T06:08:03;16.80;99.90
56336;DHT22;42241;53.510;10.170;2022-07-06T06:10:29;16.90;99.90
56336;DHT22;42241;53.510;10.170;2022-07-06T06:12:54;17.00;99.90
56336;DHT22;42241;53.510;10.170;2022-07-06T06:15:20;17.00;99.90
56336;DHT22;42241;53.510;10.170;2022-07-06T06:17:46;17.10;99.90
56336;DHT22;42241;53.510;10.170;2022-07-06T06:20:12;17.10;99.90
56336;DHT22;42241;53.510;10.170;2022-07-06T06:22:51;17.00;99.90
56336;DHT22;42241;53.510;10.170;2022-07-06T06:25:27;17.10;99.90
56336;DHT22;42241;53.510;10.170;2022-07-06T06:27:53;17.10;99.90
56336;DHT22;42241;53.510;10.170;2022-07-06T06:30:19;16.90;99.90
56336;DHT22;42241;53.510;10.170;2022-07-06T06:32:44;16.70;99.90
56336;DHT22;42241;53.510;10.170;2022-07-06T06:35:10;16.50;99.90
56336;DHT22;42241;53.510;10.170;2022-07-06T06:37:36;16.50;99.90
56336;DHT22;42241;53.510;10.170;2022-07-06T06:40:02;16.40;99.90
56336;DHT22;42241;53.510;10.170;2022-07-06T06:42:28;16.40;99.90
56336;DHT22;42241;53.510;10.170;2022-07-06T06:44:56;16.20;99.90
56336;DHT22;42241;53.510;10.170;2022-07-06T06:47:21;16.10;99.90
56336;DHT22;42241;53.510;10.170;2022-07-06T06:49:47;16.10;99.90
56336;DHT22;42241;53.510;10.170;2022-07-06T06:52:13;16.20;99.90
56336;DHT22;42241;53.510;10.170;2022-07-06T06:54:39;16.30;99.90
56336;DHT22;42241;53.510;10.170;2022-07-06T06:57:04;16.40;99.90
56336;DHT22;42241;53.510;10.170;2022-07-06T06:59:30;16.60;99.90
56336;DHT22;42241;53.510;10.170;2022-07-06T07:01:55;16.80;99.90
56336;DHT22;42241;53.510;10.170;2022-07-06T07:04:21;17.00;99.90
56336;DHT22;42241;53.510;10.170;2022-07-06T07:06:49;17.30;99.90
56336;DHT22;42241;53.510;10.170;2022-07-06T07:09:15;17.60;99.90
56336;DHT22;42241;53.510;10.170;2022-07-06T07:11:40;17.70;99.90
56336;DHT22;42241;53.510;10.170;2022-07-06T07:14:06;18.00;99.90
56336;DHT22;42241;53.510;10.170;2022-07-06T07:16:34;18.00;99.90
56336;DHT22;42241;53.510;10.170;2022-07-06T07:18:59;17.70;99.90
56336;DHT22;42241;53.510;10.170;2022-07-06T07:21:27;17.80;99.90
56336;DHT22;42241;53.510;10.170;2022-07-06T07:23:52;17.80;99.90
56336;DHT22;42241;53.510;10.170;2022-07-06T07:26:18;17.70;99.90
56336;DHT22;42241;53.510;10.170;2022-07-06T07:28:44;17.90;99.90
56336;DHT22;42241;53.510;10.170;2022-07-06T07:31:12;18.10;99.90
56336;DHT22;42241;53.510;10.170;2022-07-06T07:33:38;18.30;99.90
56336;DHT22;42241;53.510;10.170;2022-07-06T07:36:03;18.20;99.90
56336;DHT22;42241;53.510;10.170;2022-07-06T07:38:29;18.40;99.90
56336;DHT22;42241;53.510;10.170;2022-07-06T07:40:55;18.10;99.90
56336;DHT22;42241;53.510;10.170;2022-07-06T07:43:21;18.10;99.90
56336;DHT22;42241;53.510;10.170;2022-07-06T07:45:48;18.20;99.90
56336;DHT22;42241;53.510;10.170;2022-07-06T07:48:14;18.40;99.90
56336;DHT22;42241;53.510;10.170;2022-07-06T07:50:40;18.40;99.90
56336;DHT22;42241;53.510;10.170;2022-07-06T07:53:06;18.30;99.90
56336;DHT22;42241;53.510;10.170;2022-07-06T07:55:32;18.20;99.90
56336;DHT22;42241;53.510;10.170;2022-07-06T07:57:57;17.90;99.90
56336;DHT22;42241;53.510;10.170;2022-07-06T08:00:23;17.80;99.90
56336;DHT22;42241;53.510;10.170;2022-07-06T08:02:49;17.60;99.90
56336;DHT22;42241;53.510;10.170;2022-07-06T08:05:15;17.60;99.90
56336;DHT22;42241;53.510;10.170;2022-07-06T08:07:41;17.50;99.90
56336;DHT22;42241;53.510;10.170;2022-07-06T08:10:07;17.40;99.90
56336;DHT22;42241;53.510;10.170;2022-07-06T08:12:33;17.40;99.90
56336;DHT22;42241;53.510;10.170;2022-07-06T08:14:58;17.30;99.90
56336;DHT22;42241;53.510;10.170;2022-07-06T08:17:24;17.40;99.90
56336;DHT22;42241;53.510;10.170;2022-07-06T08:19:50;17.40;99.90
56336;DHT22;42241;53.510;10.170;2022-07-06T08:22:15;17.50;99.90
56336;DHT22;42241;53.510;10.170;2022-07-06T08:24:41;17.60;99.90
56336;DHT22;42241;53.510;10.170;2022-07-06T08:27:07;17.70;99.90
56336;DHT22;42241;53.510;10.170;2022-07-06T08:29:32;17.60;99.90
56336;DHT22;42241;53.510;10.170;2022-07-06T08:31:58;17.50;99.90
56336;DHT22;42241;53.510;10.170;2022-07-06T08:34:24;17.50;99.90
56336;DHT22;42241;53.510;10.170;2022-07-06T08:36:49;17.40;99.90
56336;DHT22;42241;53.510;10.170;2022-07-06T08:39:15;17.50;99.90
56336;DHT22;42241;53.510;10.170;2022-07-06T08:41:41;17.40;99.90
56336;DHT22;42241;53.510;10.170;2022-07-06T08:44:07;17.40;99.90
56336;DHT22;42241;53.510;10.170;2022-07-06T08:46:34;17.30;99.90
56336;DHT22;42241;53.510;10.170;2022-07-06T08:49:01;17.10;99.90
56336;DHT22;42241;53.510;10.170;2022-07-06T08:51:27;17.00;99.90
56336;DHT22;42241;53.510;10.170;2022-07-06T08:53:52;17.00;99.90
56336;DHT22;42241;53.510;10.170;2022-07-06T08:56:18;16.80;99.90
56336;DHT22;42241;53.510;10.170;2022-07-06T08:58:44;16.70;99.90
56336;DHT22;42241;53.510;10.170;2022-07-06T09:01:10;16.50;99.90
56336;DHT22;42241;53.510;10.170;2022-07-06T09:03:38;16.60;99.90
56336;DHT22;42241;53.510;10.170;2022-07-06T09:06:04;16.60;99.90
56336;DHT22;42241;53.510;10.170;2022-07-06T09:08:30;16.50;99.90
56336;DHT22;42241;53.510;10.170;2022-07-06T09:10:56;16.60;99.90
56336;DHT22;42241;53.510;10.170;2022-07-06T09:13:21;16.80;99.90
56336;DHT22;42241;53.510;10.170;2022-07-06T09:15:47;17.00;99.90
56336;DHT22;42241;53.510;10.170;2022-07-06T09:18:13;17.30;99.90
56336;DHT22;42241;53.510;10.170;2022-07-06T09:20:39;17.70;99.90
56336;DHT22;42241;53.510;10.170;2022-07-06T09:23:05;18.10;99.90
56336;DHT22;42241;53.510;10.170;2022-07-06T09:25:32;18.70;99.90
56336;DHT22;42241;53.510;10.170;2022-07-06T09:27:58;18.70;99.90
56336;DHT22;42241;53.510;10.170;2022-07-06T09:30:24;18.90;99.90
56336;DHT22;42241;53.510;10.170;2022-07-06T09:32:51;18.90;99.90
56336;DHT22;42241;53.510;10.170;2022-07-06T09:40:26;18.90;99.90
56336;DHT22;42241;53.510;10.170;2022-07-06T09:45:40;18.90;99.90
56336;DHT22;42241;53.510;10.170;2022-07-06T09:48:13;18.80;99.90
56336;DHT22;42241;53.510;10.170;2022-07-06T09:50:40;18.70;99.90
56336;DHT22;42241;53.510;10.170;2022-07-06T09:53:06;18.20;99.90
56336;DHT22;42241;53.510;10.170;2022-07-06T09:55:32;18.00;99.90
56336;DHT22;42241;53.510;10.170;2022-07-06T09:57:57;17.80;99.90
56336;DHT22;42241;53.510;10.170;2022-07-06T10:00:23;17.90;99.90
56336;DHT22;42241;53.510;10.170;2022-07-06T10:02:49;17.60;99.90
56336;DHT22;42241;53.510;10.170;2022-07-06T10:05:15;17.70;99.90
56336;DHT22;42241;53.510;10.170;2022-07-06T10:07:42;17.90;99.90
56336;DHT22;42241;53.510;10.170;2022-07-06T10:10:08;18.60;99.90
56336;DHT22;42241;53.510;10.170;2022-07-06T10:12:33;19.20;99.90
56336;DHT22;42241;53.510;10.170;2022-07-06T10:14:59;19.70;99.90
56336;DHT22;42241;53.510;10.170;2022-07-06T10:17:25;20.10;99.90
56336;DHT22;42241;53.510;10.170;2022-07-06T10:19:51;19.90;99.90
56336;DHT22;42241;53.510;10.170;2022-07-06T10:22:19;19.40;99.90
56336;DHT22;42241;53.510;10.170;2022-07-06T10:24:45;19.10;99.90
56336;DHT22;42241;53.510;10.170;2022-07-06T10:27:11;18.90;99.90
56336;DHT22;42241;53.510;10.170;2022-07-06T10:29:37;19.20;99.90
56336;DHT22;42241;53.510;10.170;2022-07-06T10:32:03;19.90;99.90
56336;DHT22;42241;53.510;10.170;2022-07-06T10:34:29;20.40;99.90
56336;DHT22;42241;53.510;10.170;2022-07-06T10:36:54;20.80;99.90
56336;DHT22;42241;53.510;10.170;2022-07-06T10:39:33;20.60;99.90
56336;DHT22;42241;53.510;10.170;2022-07-06T10:45:02;19.80;99.90
56336;DHT22;42241;53.510;10.170;2022-07-06T10:47:28;19.40;99.90
56336;DHT22;42241;53.510;10.170;2022-07-06T10:49:53;19.20;99.90
56336;DHT22;42241;53.510;10.170;2022-07-06T10:52:38;18.70;99.90
56336;DHT22;42241;53.510;10.170;2022-07-06T10:55:26;18.10;99.90
56336;DHT22;42241;53.510;10.170;2022-07-06T10:57:53;17.50;99.90
56336;DHT22;42241;53.510;10.170;2022-07-06T11:00:26;16.90;99.90
56336;DHT22;42241;53.510;10.170;2022-07-06T11:05:57;16.60;99.90
56336;DHT22;42241;53.510;10.170;2022-07-06T11:08:22;16.50;99.90
56336;DHT22;42241;53.510;10.170;2022-07-06T11:10:48;16.40;99.90
56336;DHT22;42241;53.510;10.170;2022-07-06T11:13:41;16.40;99.90
56336;DHT22;42241;53.510;10.170;2022-07-06T11:16:01;16.30;99.90
56336;DHT22;42241;53.510;10.170;2022-07-06T11:18:45;16.20;99.90
56336;DHT22;42241;53.510;10.170;2022-07-06T11:21:21;16.20;99.90
56336;DHT22;42241;53.510;10.170;2022-07-06T11:23:48;16.20;99.90
56336;DHT22;42241;53.510;10.170;2022-07-06T11:26:14;16.10;99.90
56336;DHT22;42241;53.510;10.170;2022-07-06T11:28:40;16.10;99.90
56336;DHT22;42241;53.510;10.170;2022-07-06T11:31:05;16.20;99.90
56336;DHT22;42241;53.510;10.170;2022-07-06T11:33:31;16.30;99.90
56336;DHT22;42241;53.510;10.170;2022-07-06T11:38:42;16.50;99.90
56336;DHT22;42241;53.510;10.170;2022-07-06T11:41:08;16.70;99.90
56336;DHT22;42241;53.510;10.170;2022-07-06T11:43:33;17.00;99.90
56336;DHT22;42241;53.510;10.170;2022-07-06T11:45:59;17.40;99.90
56336;DHT22;42241;53.510;10.170;2022-07-06T11:48:25;18.60;99.90
56336;DHT22;42241;53.510;10.170;2022-07-06T11:51:00;20.80;99.90
56336;DHT22;42241;53.510;10.170;2022-07-06T11:53:26;21.60;99.90
56336;DHT22;42241;53.510;10.170;2022-07-06T11:55:52;21.80;99.90
56336;DHT22;42241;53.510;10.170;2022-07-06T11:58:21;21.80;99.90
56336;DHT22;42241;53.510;10.170;2022-07-06T12:01:03;22.10;99.90
56336;DHT22;42241;53.510;10.170;2022-07-06T12:03:29;22.30;99.90
56336;DHT22;42241;53.510;10.170;2022-07-06T12:05:55;23.10;99.90
56336;DHT22;42241;53.510;10.170;2022-07-06T12:08:20;22.50;99.90
56336;DHT22;42241;53.510;10.170;2022-07-06T12:10:48;22.50;99.90
56336;DHT22;42241;53.510;10.170;2022-07-06T12:13:14;21.90;99.90
56336;DHT22;42241;53.510;10.170;2022-07-06T12:15:39;21.70;99.90
56336;DHT22;42241;53.510;10.170;2022-07-06T12:18:05;21.50;99.90
56336;DHT22;42241;53.510;10.170;2022-07-06T12:20:30;21.70;99.90
56336;DHT22;42241;53.510;10.170;2022-07-06T12:23:02;22.40;99.90
56336;DHT22;42241;53.510;10.170;2022-07-06T12:25:29;22.70;99.90
56336;DHT22;42241;53.510;10.170;2022-07-06T12:27:55;22.50;99.90
56336;DHT22;42241;53.510;10.170;2022-07-06T12:30:20;22.00;99.90
56336;DHT22;42241;53.510;10.170;2022-07-06T12:32:46;21.70;99.90
56336;DHT22;42241;53.510;10.170;2022-07-06T12:35:12;21.60;99.90
56336;DHT22;42241;53.510;10.170;2022-07-06T12:37:37;21.70;99.90
56336;DHT22;42241;53.510;10.170;2022-07-06T12:40:13;21.80;99.90
56336;DHT22;42241;53.510;10.170;2022-07-06T12:42:45;22.00;99.90
56336;DHT22;42241;53.510;10.170;2022-07-06T12:45:14;22.00;99.90
56336;DHT22;42241;53.510;10.170;2022-07-06T12:47:39;22.10;99.90
56336;DHT22;42241;53.510;10.170;2022-07-06T12:50:09;21.80;99.90
56336;DHT22;42241;53.510;10.170;2022-07-06T12:52:35;21.60;99.90
56336;DHT22;42241;53.510;10.170;2022-07-06T12:55:02;21.20;99.90
56336;DHT22;42241;53.510;10.170;2022-07-06T12:57:28;21.10;99.90
56336;DHT22;42241;53.510;10.170;2022-07-06T13:00:07;20.90;99.90
56336;DHT22;42241;53.510;10.170;2022-07-06T13:02:33;20.80;99.90
56336;DHT22;42241;53.510;10.170;2022-07-06T13:05:02;20.90;99.90
56336;DHT22;42241;53.510;10.170;2022-07-06T13:07:29;21.20;99.90
56336;DHT22;42241;53.510;10.170;2022-07-06T13:09:57;21.60;99.90
56336;DHT22;42241;53.510;10.170;2022-07-06T13:12:23;21.70;99.90
56336;DHT22;42241;53.510;10.170;2022-07-06T13:14:49;21.80;99.90
56336;DHT22;42241;53.510;10.170;2022-07-06T13:17:15;21.80;99.90
56336;DHT22;42241;53.510;10.170;2022-07-06T13:19:41;21.80;99.90
56336;DHT22;42241;53.510;10.170;2022-07-06T13:22:06;21.70;99.90
56336;DHT22;42241;53.510;10.170;2022-07-06T13:24:32;21.60;99.90
56336;DHT22;42241;53.510;10.170;2022-07-06T13:26:58;21.60;99.90
56336;DHT22;42241;53.510;10.170;2022-07-06T13:29:24;21.30;99.90
56336;DHT22;42241;53.510;10.170;2022-07-06T13:31:49;21.20;99.90
56336;DHT22;42241;53.510;10.170;2022-07-06T13:34:15;21.20;99.90
56336;DHT22;42241;53.510;10.170;2022-07-06T13:36:41;21.00;99.90
56336;DHT22;42241;53.510;10.170;2022-07-06T13:39:07;20.80;99.90
56336;DHT22;42241;53.510;10.170;2022-07-06T13:41:33;20.60;99.90
56336;DHT22;42241;53.510;10.170;2022-07-06T13:43:59;20.30;99.90
56336;DHT22;42241;53.510;10.170;2022-07-06T13:46:26;20.30;99.90
56336;DHT22;42241;53.510;10.170;2022-07-06T13:48:52;20.50;99.90
56336;DHT22;42241;53.510;10.170;2022-07-06T13:51:17;20.60;99.90
56336;DHT22;42241;53.510;10.170;2022-07-06T13:53:46;20.70;99.90
56336;DHT22;42241;53.510;10.170;2022-07-06T13:56:11;20.40;99.90
56336;DHT22;42241;53.510;10.170;2022-07-06T13:58:37;20.40;99.90
56336;DHT22;42241;53.510;10.170;2022-07-06T14:01:03;20.50;99.90
56336;DHT22;42241;53.510;10.170;2022-07-06T14:03:29;20.80;99.90
56336;DHT22;42241;53.510;10.170;2022-07-06T14:05:55;20.70;99.90
56336;DHT22;42241;53.510;10.170;2022-07-06T14:08:21;20.70;99.90
56336;DHT22;42241;53.510;10.170;2022-07-06T14:10:47;20.60;99.90
56336;DHT22;42241;53.510;10.170;2022-07-06T14:13:13;20.30;99.90
56336;DHT22;42241;53.510;10.170;2022-07-06T14:15:38;20.20;99.90
56336;DHT22;42241;53.510;10.170;2022-07-06T14:18:04;20.30;99.90
56336;DHT22;42241;53.510;10.170;2022-07-06T14:20:29;20.50;99.90
56336;DHT22;42241;53.510;10.170;2022-07-06T14:22:55;20.80;99.90
56336;DHT22;42241;53.510;10.170;2022-07-06T14:25:20;20.80;99.90
56336;DHT22;42241;53.510;10.170;2022-07-06T14:27:46;21.00;99.90
56336;DHT22;42241;53.510;10.170;2022-07-06T14:30:12;21.00;99.90
56336;DHT22;42241;53.510;10.170;2022-07-06T14:32:37;21.10;99.90
56336;DHT22;42241;53.510;10.170;2022-07-06T14:35:03;21.10;99.90
56336;DHT22;42241;53.510;10.170;2022-07-06T14:37:28;21.20;99.90
56336;DHT22;42241;53.510;10.170;2022-07-06T14:39:54;21.40;99.90
56336;DHT22;42241;53.510;10.170;2022-07-06T14:42:20;21.40;99.90
56336;DHT22;42241;53.510;10.170;2022-07-06T14:44:45;21.30;99.90
56336;DHT22;42241;53.510;10.170;2022-07-06T14:47:11;21.20;99.90
56336;DHT22;42241;53.510;10.170;2022-07-06T14:49:36;21.00;99.90
56336;DHT22;42241;53.510;10.170;2022-07-06T14:52:03;20.80;99.90
56336;DHT22;42241;53.510;10.170;2022-07-06T14:54:28;20.70;99.90
56336;DHT22;42241;53.510;10.170;2022-07-06T14:56:54;20.60;99.90
56336;DHT22;42241;53.510;10.170;2022-07-06T14:59:19;20.50;99.90
56336;DHT22;42241;53.510;10.170;2022-07-06T15:01:45;20.30;99.90
56336;DHT22;42241;53.510;10.170;2022-07-06T15:04:11;20.20;99.90
56336;DHT22;42241;53.510;10.170;2022-07-06T15:06:37;20.10;99.90
56336;DHT22;42241;53.510;10.170;2022-07-06T15:09:02;20.10;99.90
56336;DHT22;42241;53.510;10.170;2022-07-06T15:11:32;20.30;99.90
56336;DHT22;42241;53.510;10.170;2022-07-06T15:13:58;20.20;99.90
56336;DHT22;42241;53.510;10.170;2022-07-06T15:16:24;20.20;99.90
56336;DHT22;42241;53.510;10.170;2022-07-06T15:18:49;20.40;99.90
56336;DHT22;42241;53.510;10.170;2022-07-06T15:21:15;20.50;99.90
56336;DHT22;42241;53.510;10.170;2022-07-06T15:23:41;20.50;99.90
56336;DHT22;42241;53.510;10.170;2022-07-06T15:26:07;20.60;99.90